Zagreb — 9AA5910 — position and weather

sailwx.info

Track history (hours):
 
Tides and Currents Weather Stations Pressure Air Temp Water Temp Dewpoint Dewpoint Depression Visibility Wind Speed Wind Dir Waves Ship Positions

Zagreb

Last reported at 2015-Jan-29 23:21 UTC. Time now 2015-Jan-30 00:32 UTC.
Position N 55°27' E 014°39'.

Length 229 m; draft 14.1 m.

Type: Cargo ship. MMSI: 238249000.

Date/timePositionNaut miles runAvg speedWind from/ knotsBaromVisibWave heightAir tempDewpointWater temp
2015-Jan-29 23:21N 55°27' E 014°39'37910.0
2015-Jan-28 09:33N 59°39' E 023°27'1212.0
2015-Jan-28 08:33N 59°42' E 023°50'1512.2
2015-Jan-28 07:21N 59°46' E 024°18'4912.3
2015-Jan-28 03:22N 59°56' E 025°54'1111.7
2015-Jan-28 02:26N 59°59' E 026°15'1011.6
2015-Jan-28 01:33N 60°01' E 026°35'1211.6
2015-Jan-28 00:32N 59°60' E 026°58'1211.5
2015-Jan-27 23:29N 60°04' E 027°20'  
2015-Jan-21 23:33N 60°05' E 027°26'1413.1
2015-Jan-21 22:30N 59°58' E 027°02'1513.0
2015-Jan-21 21:22N 59°59' E 026°33'2313.0
2015-Jan-21 19:33N 59°53' E 025°47'1513.0
2015-Jan-21 18:25N 59°49' E 025°19'1612.7
2015-Jan-21 17:12N 59°46' E 024°49'812.5
2015-Jan-21 16:33N 59°44' E 024°33'1712.6
2015-Jan-21 15:13N 59°40' E 024°01'912.7
2015-Jan-21 14:33N 59°37' E 023°45'35613.2
2015-Jan-20 11:30N 55°40' E 015°29'1314.2
2015-Jan-20 10:33N 55°34' E 015°08'1414.0
2015-Jan-20 09:33N 55°26' E 014°47'1414.3
2015-Jan-20 08:33N 55°17' E 014°28'1313.0
2015-Jan-20 07:33N 55°10' E 014°08'1413.7
2015-Jan-20 06:33N 55°11' E 013°45'1413.6
2015-Jan-20 05:32N 55°11' E 013°20'1313.4
2015-Jan-20 04:33N 55°13' E 012°58'1312.8
2015-Jan-20 03:33N 55°19' E 012°38'1312.7
2015-Jan-20 02:33N 55°32' E 012°42'8 8.1
2015-Jan-20 01:33N 55°40' E 012°41'1211.7
2015-Jan-20 00:34N 55°52' E 012°40'1111.3
2015-Jan-19 23:33N 56°03' E 012°39'  
Track history (hours):
 
Tides and Currents Weather Stations Pressure Air Temp Water Temp Dewpoint Dewpoint Depression Visibility Wind Speed Wind Dir Waves Ship Positions

Zagreb

Last reported at 2015-Jan-29 23:21 UTC. Time now 2015-Jan-30 00:32 UTC.
Position N 55°27' E 014°39'.

Length 229 m; draft 14.1 m.

Type: Cargo ship. MMSI: 238249000.

Date/timePositionNaut miles runAvg speedWind from/ knotsBaromVisibWave heightAir tempDewpointWater temp
2015-Jan-29 23:21N 55°27' E 014°39'37910.0
2015-Jan-28 09:33N 59°39' E 023°27'1212.0
2015-Jan-28 08:33N 59°42' E 023°50'1512.2
2015-Jan-28 07:21N 59°46' E 024°18'4912.3
2015-Jan-28 03:22N 59°56' E 025°54'1111.7
2015-Jan-28 02:26N 59°59' E 026°15'1011.6
2015-Jan-28 01:33N 60°01' E 026°35'1211.6
2015-Jan-28 00:32N 59°60' E 026°58'1211.5
2015-Jan-27 23:29N 60°04' E 027°20'  
2015-Jan-21 23:33N 60°05' E 027°26'1413.1
2015-Jan-21 22:30N 59°58' E 027°02'1513.0
2015-Jan-21 21:22N 59°59' E 026°33'2313.0
2015-Jan-21 19:33N 59°53' E 025°47'1513.0
2015-Jan-21 18:25N 59°49' E 025°19'1612.7
2015-Jan-21 17:12N 59°46' E 024°49'812.5
2015-Jan-21 16:33N 59°44' E 024°33'1712.6
2015-Jan-21 15:13N 59°40' E 024°01'912.7
2015-Jan-21 14:33N 59°37' E 023°45'35613.2
2015-Jan-20 11:30N 55°40' E 015°29'1314.2
2015-Jan-20 10:33N 55°34' E 015°08'1414.0
2015-Jan-20 09:33N 55°26' E 014°47'1414.3
2015-Jan-20 08:33N 55°17' E 014°28'1313.0
2015-Jan-20 07:33N 55°10' E 014°08'1413.7
2015-Jan-20 06:33N 55°11' E 013°45'1413.6
2015-Jan-20 05:32N 55°11' E 013°20'1313.4
2015-Jan-20 04:33N 55°13' E 012°58'1312.8
2015-Jan-20 03:33N 55°19' E 012°38'1312.7
2015-Jan-20 02:33N 55°32' E 012°42'8 8.1
2015-Jan-20 01:33N 55°40' E 012°41'1211.7
2015-Jan-20 00:34N 55°52' E 012°40'1111.3
2015-Jan-19 23:33N 56°03' E 012°39'  

Dump ship's entire track history